createdAt,value
2023-04-28T13:00:52.348Z,19.27
2023-04-28T13:01:53.549Z,19.47
2023-04-28T13:02:52.373Z,19.62
2023-04-28T13:03:52.947Z,19.60
2023-04-28T13:04:56.858Z,19.60
2023-04-28T13:05:52.320Z,19.65
2023-04-28T13:06:52.137Z,19.70
2023-04-28T13:12:44.450Z,20.04
2023-04-28T13:13:43.457Z,20.17
2023-04-28T13:14:44.685Z,20.19
2023-04-28T13:15:43.027Z,20.12
2023-04-28T13:16:42.982Z,20.25
2023-04-28T13:17:43.527Z,20.22
2023-04-28T13:18:43.957Z,20.22
2023-04-28T13:19:42.945Z,20.23
2023-04-28T13:20:42.831Z,20.27
2023-04-28T13:21:43.504Z,20.23
2023-04-28T13:22:42.768Z,20.23
2023-04-28T13:23:42.791Z,20.35
2023-04-28T13:24:42.584Z,20.19
2023-04-28T13:25:42.513Z,20.07
2023-04-28T13:26:42.588Z,19.90
2023-04-28T13:27:43.439Z,19.98
2023-04-28T13:28:42.388Z,19.97
2023-04-28T13:29:42.374Z,20.04
2023-04-28T13:30:42.331Z,20.15
2023-04-28T13:31:42.348Z,20.04
2023-04-28T13:32:42.305Z,19.98
2023-04-28T13:33:42.248Z,19.76
2023-04-28T13:34:42.357Z,19.82
2023-04-28T13:35:42.290Z,20.01
2023-04-28T13:36:42.133Z,20.05
2023-04-28T13:37:42.111Z,20.26
2023-04-28T13:38:42.076Z,20.42
2023-04-28T13:39:42.039Z,20.46
2023-04-28T13:40:42.185Z,20.64
2023-04-28T13:41:41.973Z,20.66
2023-04-28T13:42:42.124Z,20.72
2023-04-28T13:43:41.916Z,20.64
2023-04-28T13:44:41.849Z,20.51
2023-04-28T13:45:41.848Z,20.51
2023-04-28T13:46:41.856Z,20.56
2023-04-28T13:47:41.774Z,20.66
2023-04-28T13:48:41.760Z,20.61
2023-04-28T13:49:41.692Z,20.53
2023-04-28T13:50:41.650Z,20.42
2023-04-28T13:51:41.625Z,20.53
2023-04-28T13:52:41.582Z,20.37
2023-04-28T13:53:41.541Z,20.26
2023-04-28T13:54:41.511Z,20.27
2023-04-28T13:55:41.493Z,20.27
2023-04-28T13:56:41.451Z,20.27
2023-04-28T13:57:41.412Z,20.26
2023-04-28T13:58:41.375Z,20.35
2023-04-28T13:59:41.333Z,20.19
2023-04-28T14:00:41.330Z,20.33
2023-04-28T14:01:41.324Z,20.31
2023-04-28T14:02:43.184Z,20.25
2023-04-28T14:03:41.333Z,20.16
2023-04-28T14:04:41.449Z,20.10
2023-04-28T14:05:48.847Z,20.12
2023-04-28T14:06:41.090Z,20.08
2023-04-28T14:07:41.095Z,20.07
2023-04-28T14:08:41.129Z,20.13
2023-04-28T14:09:41.003Z,20.31
2023-04-28T14:10:40.982Z,20.41
2023-04-28T14:11:40.989Z,20.60
2023-04-28T14:12:40.909Z,20.76
2023-04-28T14:13:40.926Z,20.93
2023-04-28T14:14:47.211Z,21.03
2023-04-28T14:15:51.266Z,21.11
2023-04-28T14:16:40.785Z,21.11
2023-04-28T14:17:40.740Z,21.26
2023-04-28T14:18:40.693Z,21.21
2023-04-28T14:19:42.677Z,21.18
2023-04-28T14:20:40.642Z,21.26
2023-04-28T14:21:43.585Z,21.26
2023-04-28T14:22:40.593Z,21.26
2023-04-28T14:23:40.523Z,21.09
2023-04-28T14:24:40.554Z,21.03
2023-04-28T14:25:42.162Z,20.85
2023-04-28T14:26:40.454Z,20.83
2023-04-28T14:27:40.431Z,20.68
2023-04-28T14:28:40.381Z,20.54
2023-04-28T14:29:40.402Z,20.53
2023-04-28T14:30:40.291Z,20.58
2023-04-28T14:31:42.224Z,20.64
2023-04-28T14:32:40.287Z,20.78
2023-04-28T14:33:44.087Z,21.03
2023-04-28T14:34:40.152Z,20.94
2023-04-28T14:35:40.115Z,21.11
2023-04-28T14:36:40.085Z,21.12
2023-04-28T14:37:40.112Z,21.12
2023-04-28T14:38:40.418Z,21.16
2023-04-28T14:39:39.997Z,21.18
2023-04-28T14:40:41.633Z,21.27
2023-04-28T14:41:39.909Z,21.33
2023-04-28T14:42:39.891Z,21.27
2023-04-28T14:43:39.868Z,21.13
2023-04-28T14:44:39.802Z,21.01
2023-04-28T14:45:39.814Z,20.83
2023-04-28T14:46:39.879Z,20.82
2023-04-28T14:47:39.722Z,20.82
2023-04-28T14:48:39.664Z,20.88
2023-04-28T14:49:39.648Z,20.90
2023-04-28T14:50:39.600Z,20.88
2023-04-28T14:51:39.613Z,20.91
2023-04-28T14:52:39.538Z,20.88
2023-04-28T14:53:39.519Z,20.93
2023-04-28T14:54:39.458Z,20.96
2023-04-28T14:55:39.446Z,21.01
2023-04-28T14:56:39.414Z,21.06
2023-04-28T14:57:39.400Z,20.96
2023-04-28T14:58:39.340Z,20.90
2023-04-28T14:59:39.309Z,20.81
2023-04-28T15:00:39.268Z,20.76
2023-04-28T15:01:39.264Z,20.61
2023-04-28T15:02:39.381Z,20.54
2023-04-28T15:03:39.305Z,20.58
2023-04-28T15:04:39.211Z,20.41
2023-04-28T15:05:39.102Z,20.27
2023-04-28T15:06:39.053Z,20.34
2023-04-28T15:07:39.034Z,20.34
2023-04-28T15:08:39.030Z,20.37
2023-04-28T15:09:40.610Z,20.41
2023-04-28T15:10:38.907Z,20.35
2023-04-28T15:11:38.900Z,20.22
2023-04-28T15:12:38.858Z,20.26
2023-04-28T15:13:40.007Z,20.31
2023-04-28T15:14:38.803Z,20.10
2023-04-28T15:15:38.737Z,20.12
2023-04-28T15:16:38.907Z,19.98
2023-04-28T15:17:38.721Z,19.75
2023-04-28T15:18:38.638Z,19.64
2023-04-28T15:19:38.619Z,19.58
2023-04-28T15:20:38.597Z,19.42
2023-04-28T15:21:38.542Z,19.46
2023-04-28T15:22:38.533Z,19.50
2023-04-28T15:23:38.506Z,19.55
2023-04-28T15:24:38.424Z,19.60
2023-04-28T15:25:38.393Z,19.49
2023-04-28T15:26:38.379Z,19.62
2023-04-28T15:27:38.338Z,19.67
2023-04-28T15:28:38.305Z,19.57
2023-04-28T15:29:38.276Z,19.60
2023-04-28T15:30:38.231Z,19.65
2023-04-28T15:31:38.219Z,19.50
2023-04-28T15:32:38.262Z,19.27
2023-04-28T15:33:38.118Z,19.10
2023-04-28T15:34:38.078Z,18.94
2023-04-28T15:35:38.057Z,18.86
2023-04-28T15:36:38.007Z,18.75
2023-04-28T15:37:38.011Z,18.69
2023-04-28T15:38:39.634Z,18.51
2023-04-28T15:39:37.965Z,18.60
2023-04-28T15:40:37.871Z,18.54
2023-04-28T15:41:37.882Z,18.50
2023-04-28T15:42:37.808Z,18.56
2023-04-28T15:43:37.821Z,18.53
2023-04-28T15:44:40.613Z,18.68
2023-04-28T15:45:37.759Z,18.59
2023-04-28T15:46:37.733Z,18.56
2023-04-28T15:47:37.633Z,18.59
2023-04-28T15:48:37.607Z,18.66
2023-04-28T15:49:37.627Z,18.68
2023-04-28T15:50:40.886Z,18.72
2023-04-28T15:51:39.232Z,18.76
2023-04-28T15:52:37.439Z,18.66
2023-04-28T15:53:37.416Z,18.50
2023-04-28T15:54:37.377Z,18.41
2023-04-28T15:55:37.356Z,18.49
2023-04-28T15:56:37.322Z,18.23
2023-04-28T15:57:37.284Z,18.21
2023-04-28T15:58:37.223Z,18.19
2023-04-28T15:59:37.206Z,18.16
2023-04-28T16:00:37.165Z,18.16
2023-04-28T16:01:37.182Z,18.25
2023-04-28T16:02:37.192Z,18.28
2023-04-28T16:03:37.432Z,18.19
2023-04-28T16:04:37.186Z,18.21
2023-04-28T16:05:36.995Z,18.14
2023-04-28T16:06:36.977Z,18.25
2023-04-28T16:07:36.921Z,18.09
2023-04-28T16:08:36.928Z,18.02
2023-04-28T16:09:36.839Z,17.98
2023-04-28T16:10:36.842Z,17.92
2023-04-28T16:11:38.661Z,17.96
2023-04-28T16:12:36.744Z,17.92
2023-04-28T16:13:36.708Z,17.92
2023-04-28T16:14:36.697Z,17.96
2023-04-28T16:15:36.648Z,17.83
2023-04-28T16:16:36.618Z,17.76
2023-04-28T16:17:38.295Z,17.84
2023-04-28T16:18:38.301Z,17.80
2023-04-28T16:19:36.486Z,17.81
2023-04-28T16:20:37.540Z,17.80
2023-04-28T16:21:36.419Z,17.76
2023-04-28T16:22:36.365Z,17.66
2023-04-28T16:23:36.382Z,17.65
2023-04-28T16:24:38.245Z,17.66
2023-04-28T16:25:36.273Z,17.71
2023-04-28T16:26:42.283Z,17.60
2023-04-28T16:27:39.638Z,17.63
2023-04-28T16:28:38.152Z,17.60
2023-04-28T16:31:57.716Z,17.53
2023-04-28T16:33:25.211Z,17.54
2023-04-28T16:33:32.711Z,17.57
2023-04-28T16:38:06.856Z,17.35
2023-04-28T16:39:04.567Z,17.28
2023-04-28T16:40:04.373Z,17.27
2023-04-28T16:41:05.240Z,17.10
2023-04-28T16:42:05.823Z,17.20
2023-04-28T16:43:04.281Z,17.09
2023-04-28T16:44:04.736Z,17.02
2023-04-28T16:45:04.134Z,17.18
2023-04-28T16:46:04.125Z,17.09
2023-04-28T16:47:05.828Z,17.09
2023-04-28T16:48:04.116Z,17.09
2023-04-28T16:49:05.854Z,17.09
2023-04-28T16:50:03.960Z,17.10
2023-04-28T16:51:03.958Z,17.06
2023-04-28T16:52:08.778Z,17.15
2023-04-28T16:53:03.922Z,17.09
2023-04-28T16:54:03.985Z,17.06
2023-04-28T16:58:07.503Z,17.02
2023-04-28T16:59:06.263Z,16.90
2023-04-28T17:00:07.016Z,16.98
2023-04-28T17:01:06.259Z,17.05
2023-04-28T17:02:06.944Z,16.98
2023-04-28T17:03:06.271Z,16.98
2023-04-28T17:04:06.734Z,16.92
2023-04-28T17:05:06.021Z,16.95
2023-04-28T17:06:06.073Z,16.88
2023-04-28T17:07:06.472Z,16.91
2023-04-28T17:08:07.517Z,16.84
2023-04-28T17:09:05.888Z,16.90
2023-04-28T17:10:05.865Z,16.78
2023-04-28T17:11:05.844Z,16.87
2023-04-28T17:12:06.526Z,16.72
2023-04-28T17:13:07.291Z,16.77
2023-04-28T17:14:06.693Z,16.77
2023-04-28T17:15:06.521Z,16.84
2023-04-28T17:16:05.676Z,16.75
2023-04-28T17:17:05.999Z,16.63
2023-04-28T17:18:05.555Z,16.73
2023-04-28T17:19:05.610Z,16.60
2023-04-28T17:20:06.060Z,16.57
2023-04-28T17:21:05.419Z,16.51
2023-04-28T17:22:05.937Z,16.40
2023-04-28T17:23:05.375Z,16.41
2023-04-28T17:24:05.383Z,16.47
2023-04-28T17:25:05.281Z,16.40
2023-04-28T17:26:05.286Z,16.32
2023-04-28T17:27:05.260Z,16.32
2023-04-28T17:28:05.271Z,16.40
2023-04-28T17:29:05.245Z,16.41
2023-04-28T17:30:06.051Z,16.36
2023-04-28T17:31:06.122Z,16.40
2023-04-28T17:32:06.031Z,16.40
2023-04-28T17:33:05.061Z,16.40
2023-04-28T17:34:07.478Z,16.30
2023-04-28T17:35:04.906Z,16.40
2023-04-28T17:36:05.009Z,16.47
2023-04-28T17:37:05.522Z,16.32
2023-04-28T17:38:04.885Z,16.37
2023-04-28T17:39:04.788Z,16.40
2023-04-28T17:40:05.780Z,16.34
2023-04-28T17:41:12.403Z,16.34
2023-04-28T17:42:04.955Z,16.27
2023-04-28T17:43:05.013Z,16.29
2023-04-28T17:44:04.573Z,16.27
2023-04-28T17:45:05.537Z,16.14
2023-04-28T17:46:04.605Z,16.18
2023-04-28T17:47:04.641Z,16.23
2023-04-28T17:48:04.542Z,16.07
2023-04-28T17:49:04.426Z,16.23
2023-04-28T17:50:04.402Z,16.13
2023-04-28T17:51:05.063Z,16.06
2023-04-28T17:52:04.391Z,16.10
2023-04-28T17:53:06.274Z,16.06
2023-04-28T17:54:08.391Z,16.10
2023-04-28T17:55:07.037Z,16.07
2023-04-28T17:56:04.141Z,16.08
2023-04-28T17:57:04.113Z,16.04
2023-04-28T17:58:04.097Z,16.08
2023-04-28T17:59:05.058Z,15.96
2023-04-28T18:00:08.527Z,15.96
2023-04-28T18:01:03.957Z,15.99
2023-04-28T18:02:04.624Z,15.91
2023-04-28T18:03:05.707Z,15.88
2023-04-28T18:04:03.847Z,15.80
2023-04-28T18:05:09.250Z,15.86
2023-04-28T18:06:06.586Z,15.85
2023-04-28T18:07:03.836Z,15.80
2023-04-28T18:08:03.872Z,15.74
2023-04-28T18:09:03.743Z,15.78
